sensor_id;sensor_type;location;lat;lon;timestamp;P1;durP1;ratioP1;P2;durP2;ratioP2
71166;SDS011;58864;45.928;20.078;2023-04-30T00:01:09;20.90;;;9.77;;
71166;SDS011;58864;45.928;20.078;2023-04-30T00:03:33;23.23;;;11.77;;
71166;SDS011;58864;45.928;20.078;2023-04-30T00:05:57;20.17;;;9.77;;
71166;SDS011;58864;45.928;20.078;2023-04-30T00:08:22;22.80;;;10.20;;
71166;SDS011;58864;45.928;20.078;2023-04-30T00:10:47;19.73;;;9.60;;
71166;SDS011;58864;45.928;20.078;2023-04-30T00:13:11;14.73;;;8.07;;
71166;SDS011;58864;45.928;20.078;2023-04-30T00:15:37;16.25;;;8.68;;
71166;SDS011;58864;45.928;20.078;2023-04-30T00:18:01;18.07;;;8.53;;
71166;SDS011;58864;45.928;20.078;2023-04-30T00:20:26;23.63;;;10.45;;
71166;SDS011;58864;45.928;20.078;2023-04-30T00:22:50;21.37;;;9.70;;
71166;SDS011;58864;45.928;20.078;2023-04-30T00:25:15;19.33;;;9.10;;
71166;SDS011;58864;45.928;20.078;2023-04-30T00:27:39;18.77;;;8.50;;
71166;SDS011;58864;45.928;20.078;2023-04-30T00:30:04;16.47;;;8.77;;
71166;SDS011;58864;45.928;20.078;2023-04-30T00:32:29;17.55;;;9.15;;
71166;SDS011;58864;45.928;20.078;2023-04-30T00:34:54;20.17;;;9.17;;
71166;SDS011;58864;45.928;20.078;2023-04-30T00:37:18;18.67;;;8.90;;
71166;SDS011;58864;45.928;20.078;2023-04-30T00:39:43;19.40;;;8.40;;
71166;SDS011;58864;45.928;20.078;2023-04-30T00:42:07;19.60;;;8.77;;
71166;SDS011;58864;45.928;20.078;2023-04-30T00:44:32;17.30;;;8.30;;
71166;SDS011;58864;45.928;20.078;2023-04-30T00:46:56;15.53;;;8.00;;
71166;SDS011;58864;45.928;20.078;2023-04-30T00:49:20;15.23;;;7.63;;
71166;SDS011;58864;45.928;20.078;2023-04-30T00:51:45;14.73;;;7.30;;
71166;SDS011;58864;45.928;20.078;2023-04-30T00:54:09;15.53;;;7.33;;
71166;SDS011;58864;45.928;20.078;2023-04-30T00:56:34;14.45;;;7.10;;
71166;SDS011;58864;45.928;20.078;2023-04-30T00:58:59;16.50;;;8.50;;
71166;SDS011;58864;45.928;20.078;2023-04-30T01:01:24;18.42;;;10.88;;
71166;SDS011;58864;45.928;20.078;2023-04-30T01:03:49;16.20;;;8.48;;
71166;SDS011;58864;45.928;20.078;2023-04-30T01:06:14;15.37;;;7.90;;
71166;SDS011;58864;45.928;20.078;2023-04-30T01:08:38;15.48;;;7.85;;
71166;SDS011;58864;45.928;20.078;2023-04-30T01:13:54;15.18;;;7.75;;
71166;SDS011;58864;45.928;20.078;2023-04-30T01:16:26;13.05;;;7.65;;
71166;SDS011;58864;45.928;20.078;2023-04-30T01:21:45;14.53;;;7.67;;
71166;SDS011;58864;45.928;20.078;2023-04-30T01:24:36;14.10;;;7.82;;
71166;SDS011;58864;45.928;20.078;2023-04-30T01:27:02;15.93;;;7.88;;
71166;SDS011;58864;45.928;20.078;2023-04-30T01:29:37;14.07;;;7.38;;
71166;SDS011;58864;45.928;20.078;2023-04-30T01:32:02;14.57;;;7.90;;
71166;SDS011;58864;45.928;20.078;2023-04-30T01:34:27;14.52;;;7.72;;
71166;SDS011;58864;45.928;20.078;2023-04-30T01:40:27;18.50;;;10.75;;
71166;SDS011;58864;45.928;20.078;2023-04-30T01:50:41;16.58;;;9.25;;
71166;SDS011;58864;45.928;20.078;2023-04-30T01:53:12;17.40;;;10.25;;
71166;SDS011;58864;45.928;20.078;2023-04-30T01:55:42;14.02;;;8.13;;
71166;SDS011;58864;45.928;20.078;2023-04-30T01:58:11;15.23;;;8.13;;
71166;SDS011;58864;45.928;20.078;2023-04-30T02:00:36;14.30;;;7.90;;
71166;SDS011;58864;45.928;20.078;2023-04-30T02:03:01;15.93;;;8.10;;
71166;SDS011;58864;45.928;20.078;2023-04-30T02:05:26;22.67;;;13.02;;
71166;SDS011;58864;45.928;20.078;2023-04-30T02:07:50;21.37;;;13.03;;
71166;SDS011;58864;45.928;20.078;2023-04-30T02:10:16;23.33;;;12.90;;
71166;SDS011;58864;45.928;20.078;2023-04-30T02:12:41;25.77;;;13.25;;
71166;SDS011;58864;45.928;20.078;2023-04-30T02:15:06;19.97;;;10.80;;
71166;SDS011;58864;45.928;20.078;2023-04-30T02:17:31;18.40;;;10.32;;
71166;SDS011;58864;45.928;20.078;2023-04-30T02:19:56;17.05;;;9.40;;
71166;SDS011;58864;45.928;20.078;2023-04-30T02:22:20;13.80;;;7.77;;
71166;SDS011;58864;45.928;20.078;2023-04-30T02:24:45;17.07;;;9.70;;
71166;SDS011;58864;45.928;20.078;2023-04-30T02:27:09;18.92;;;10.43;;
71166;SDS011;58864;45.928;20.078;2023-04-30T02:29:34;22.13;;;12.27;;
71166;SDS011;58864;45.928;20.078;2023-04-30T02:31:58;19.60;;;11.07;;
71166;SDS011;58864;45.928;20.078;2023-04-30T02:34:23;20.85;;;11.82;;
71166;SDS011;58864;45.928;20.078;2023-04-30T02:36:48;24.33;;;12.88;;
71166;SDS011;58864;45.928;20.078;2023-04-30T02:39:13;66.93;;;26.80;;
71166;SDS011;58864;45.928;20.078;2023-04-30T02:41:37;32.47;;;15.25;;
71166;SDS011;58864;45.928;20.078;2023-04-30T02:44:02;28.20;;;13.60;;
71166;SDS011;58864;45.928;20.078;2023-04-30T02:46:26;23.07;;;12.53;;
71166;SDS011;58864;45.928;20.078;2023-04-30T02:48:51;20.02;;;10.63;;
71166;SDS011;58864;45.928;20.078;2023-04-30T02:51:15;17.07;;;9.80;;
71166;SDS011;58864;45.928;20.078;2023-04-30T02:53:40;20.00;;;10.80;;
71166;SDS011;58864;45.928;20.078;2023-04-30T02:56:04;21.93;;;11.83;;
71166;SDS011;58864;45.928;20.078;2023-04-30T02:58:29;26.38;;;14.07;;
71166;SDS011;58864;45.928;20.078;2023-04-30T03:00:53;29.53;;;13.87;;
71166;SDS011;58864;45.928;20.078;2023-04-30T03:03:19;28.50;;;12.68;;
71166;SDS011;58864;45.928;20.078;2023-04-30T03:05:43;29.83;;;13.27;;
71166;SDS011;58864;45.928;20.078;2023-04-30T03:08:07;24.13;;;13.32;;
71166;SDS011;58864;45.928;20.078;2023-04-30T03:10:32;23.63;;;12.83;;
71166;SDS011;58864;45.928;20.078;2023-04-30T03:12:56;23.10;;;12.97;;
71166;SDS011;58864;45.928;20.078;2023-04-30T03:15:21;24.48;;;14.48;;
71166;SDS011;58864;45.928;20.078;2023-04-30T03:17:45;20.10;;;11.83;;
71166;SDS011;58864;45.928;20.078;2023-04-30T03:20:10;19.03;;;10.37;;
71166;SDS011;58864;45.928;20.078;2023-04-30T03:22:34;16.33;;;9.38;;
71166;SDS011;58864;45.928;20.078;2023-04-30T03:24:59;18.17;;;9.10;;
71166;SDS011;58864;45.928;20.078;2023-04-30T03:27:23;18.10;;;10.93;;
71166;SDS011;58864;45.928;20.078;2023-04-30T03:29:48;18.47;;;11.00;;
71166;SDS011;58864;45.928;20.078;2023-04-30T03:32:12;15.55;;;8.98;;
71166;SDS011;58864;45.928;20.078;2023-04-30T03:34:37;16.10;;;9.57;;
71166;SDS011;58864;45.928;20.078;2023-04-30T03:37:01;19.23;;;12.50;;
71166;SDS011;58864;45.928;20.078;2023-04-30T03:39:26;22.73;;;13.38;;
71166;SDS011;58864;45.928;20.078;2023-04-30T03:41:51;21.00;;;11.80;;
71166;SDS011;58864;45.928;20.078;2023-04-30T03:44:15;18.37;;;10.67;;
71166;SDS011;58864;45.928;20.078;2023-04-30T03:46:40;25.02;;;14.27;;
71166;SDS011;58864;45.928;20.078;2023-04-30T03:49:06;24.03;;;13.33;;
71166;SDS011;58864;45.928;20.078;2023-04-30T03:51:30;22.85;;;11.48;;
71166;SDS011;58864;45.928;20.078;2023-04-30T03:53:55;18.02;;;10.85;;
71166;SDS011;58864;45.928;20.078;2023-04-30T03:56:20;18.73;;;10.33;;
71166;SDS011;58864;45.928;20.078;2023-04-30T03:58:44;17.67;;;10.50;;
71166;SDS011;58864;45.928;20.078;2023-04-30T04:01:09;18.40;;;10.50;;
71166;SDS011;58864;45.928;20.078;2023-04-30T04:03:33;15.68;;;9.05;;
71166;SDS011;58864;45.928;20.078;2023-04-30T04:05:58;15.30;;;8.67;;
71166;SDS011;58864;45.928;20.078;2023-04-30T04:08:22;17.37;;;9.97;;
71166;SDS011;58864;45.928;20.078;2023-04-30T04:10:47;19.67;;;11.13;;
71166;SDS011;58864;45.928;20.078;2023-04-30T04:13:11;20.13;;;11.40;;
71166;SDS011;58864;45.928;20.078;2023-04-30T04:15:36;24.13;;;14.77;;
71166;SDS011;58864;45.928;20.078;2023-04-30T04:18:00;24.50;;;14.02;;
71166;SDS011;58864;45.928;20.078;2023-04-30T04:20:25;29.60;;;15.80;;
71166;SDS011;58864;45.928;20.078;2023-04-30T04:22:50;30.08;;;16.90;;
71166;SDS011;58864;45.928;20.078;2023-04-30T04:25:14;29.90;;;16.57;;
71166;SDS011;58864;45.928;20.078;2023-04-30T04:27:41;30.75;;;17.10;;
71166;SDS011;58864;45.928;20.078;2023-04-30T04:30:05;28.77;;;16.73;;
71166;SDS011;58864;45.928;20.078;2023-04-30T04:32:30;25.23;;;14.85;;
71166;SDS011;58864;45.928;20.078;2023-04-30T04:34:55;23.85;;;13.85;;
71166;SDS011;58864;45.928;20.078;2023-04-30T04:37:20;26.33;;;15.57;;
71166;SDS011;58864;45.928;20.078;2023-04-30T04:39:44;25.90;;;16.58;;
71166;SDS011;58864;45.928;20.078;2023-04-30T04:42:09;24.03;;;14.47;;
71166;SDS011;58864;45.928;20.078;2023-04-30T04:44:34;22.98;;;12.93;;
71166;SDS011;58864;45.928;20.078;2023-04-30T04:46:59;24.73;;;14.67;;
71166;SDS011;58864;45.928;20.078;2023-04-30T04:49:23;21.25;;;12.75;;
71166;SDS011;58864;45.928;20.078;2023-04-30T04:51:48;24.03;;;14.80;;
71166;SDS011;58864;45.928;20.078;2023-04-30T04:54:13;22.63;;;12.85;;
71166;SDS011;58864;45.928;20.078;2023-04-30T04:56:37;20.53;;;12.87;;
71166;SDS011;58864;45.928;20.078;2023-04-30T04:59:01;23.17;;;14.27;;
71166;SDS011;58864;45.928;20.078;2023-04-30T05:01:26;22.50;;;14.13;;
71166;SDS011;58864;45.928;20.078;2023-04-30T05:03:50;25.05;;;14.93;;
71166;SDS011;58864;45.928;20.078;2023-04-30T05:06:16;23.43;;;14.03;;
71166;SDS011;58864;45.928;20.078;2023-04-30T05:08:40;25.70;;;14.95;;
71166;SDS011;58864;45.928;20.078;2023-04-30T05:11:05;27.87;;;14.70;;
71166;SDS011;58864;45.928;20.078;2023-04-30T05:13:29;24.13;;;14.33;;
71166;SDS011;58864;45.928;20.078;2023-04-30T05:15:54;26.77;;;15.02;;
71166;SDS011;58864;45.928;20.078;2023-04-30T05:18:19;23.07;;;15.07;;
71166;SDS011;58864;45.928;20.078;2023-04-30T05:20:43;24.02;;;14.23;;
71166;SDS011;58864;45.928;20.078;2023-04-30T05:23:08;25.07;;;15.37;;
71166;SDS011;58864;45.928;20.078;2023-04-30T05:25:32;22.03;;;14.03;;
71166;SDS011;58864;45.928;20.078;2023-04-30T05:27:58;22.95;;;13.68;;
71166;SDS011;58864;45.928;20.078;2023-04-30T05:30:23;24.33;;;14.45;;
71166;SDS011;58864;45.928;20.078;2023-04-30T05:32:47;24.50;;;14.30;;
71166;SDS011;58864;45.928;20.078;2023-04-30T05:35:18;22.17;;;13.63;;
71166;SDS011;58864;45.928;20.078;2023-04-30T05:37:42;22.20;;;13.63;;
71166;SDS011;58864;45.928;20.078;2023-04-30T05:40:07;26.08;;;14.65;;
71166;SDS011;58864;45.928;20.078;2023-04-30T05:42:33;24.23;;;14.38;;
71166;SDS011;58864;45.928;20.078;2023-04-30T05:44:57;23.90;;;13.83;;
71166;SDS011;58864;45.928;20.078;2023-04-30T05:47:21;24.40;;;13.63;;
71166;SDS011;58864;45.928;20.078;2023-04-30T05:49:46;23.47;;;14.27;;
71166;SDS011;58864;45.928;20.078;2023-04-30T05:52:10;21.83;;;12.88;;
71166;SDS011;58864;45.928;20.078;2023-04-30T05:54:35;22.83;;;14.47;;
71166;SDS011;58864;45.928;20.078;2023-04-30T05:56:59;32.97;;;14.60;;
71166;SDS011;58864;45.928;20.078;2023-04-30T05:59:24;26.98;;;15.52;;
71166;SDS011;58864;45.928;20.078;2023-04-30T06:01:48;25.90;;;14.47;;
71166;SDS011;58864;45.928;20.078;2023-04-30T06:04:13;25.13;;;15.27;;
71166;SDS011;58864;45.928;20.078;2023-04-30T06:06:37;23.63;;;14.23;;
71166;SDS011;58864;45.928;20.078;2023-04-30T06:09:02;23.33;;;12.80;;
71166;SDS011;58864;45.928;20.078;2023-04-30T06:11:26;23.70;;;13.10;;
71166;SDS011;58864;45.928;20.078;2023-04-30T06:13:51;21.63;;;12.57;;
71166;SDS011;58864;45.928;20.078;2023-04-30T06:16:15;23.67;;;13.87;;
71166;SDS011;58864;45.928;20.078;2023-04-30T06:18:39;23.47;;;13.63;;
71166;SDS011;58864;45.928;20.078;2023-04-30T06:21:04;22.93;;;12.43;;
71166;SDS011;58864;45.928;20.078;2023-04-30T06:23:28;21.67;;;12.48;;
71166;SDS011;58864;45.928;20.078;2023-04-30T06:25:53;20.50;;;11.20;;
71166;SDS011;58864;45.928;20.078;2023-04-30T06:28:17;24.23;;;13.10;;
71166;SDS011;58864;45.928;20.078;2023-04-30T06:30:42;16.37;;;8.87;;
71166;SDS011;58864;45.928;20.078;2023-04-30T06:33:06;21.92;;;11.70;;
71166;SDS011;58864;45.928;20.078;2023-04-30T06:35:31;20.23;;;12.17;;
71166;SDS011;58864;45.928;20.078;2023-04-30T06:37:55;18.80;;;11.50;;
71166;SDS011;58864;45.928;20.078;2023-04-30T06:40:20;20.33;;;11.55;;
71166;SDS011;58864;45.928;20.078;2023-04-30T06:42:44;19.50;;;11.37;;
71166;SDS011;58864;45.928;20.078;2023-04-30T06:45:09;20.30;;;11.35;;
71166;SDS011;58864;45.928;20.078;2023-04-30T06:47:35;21.13;;;11.43;;
71166;SDS011;58864;45.928;20.078;2023-04-30T06:50:01;20.15;;;11.10;;
71166;SDS011;58864;45.928;20.078;2023-04-30T06:52:25;17.45;;;10.32;;
71166;SDS011;58864;45.928;20.078;2023-04-30T06:54:50;18.20;;;10.37;;
71166;SDS011;58864;45.928;20.078;2023-04-30T06:57:14;18.23;;;9.50;;
71166;SDS011;58864;45.928;20.078;2023-04-30T06:59:39;18.80;;;9.60;;
71166;SDS011;58864;45.928;20.078;2023-04-30T07:02:03;15.20;;;9.77;;
71166;SDS011;58864;45.928;20.078;2023-04-30T07:04:28;17.43;;;10.43;;
71166;SDS011;58864;45.928;20.078;2023-04-30T07:06:52;17.83;;;10.13;;
71166;SDS011;58864;45.928;20.078;2023-04-30T07:09:16;18.23;;;9.83;;
71166;SDS011;58864;45.928;20.078;2023-04-30T07:11:41;17.20;;;10.17;;
71166;SDS011;58864;45.928;20.078;2023-04-30T07:14:05;17.37;;;9.97;;
71166;SDS011;58864;45.928;20.078;2023-04-30T07:16:30;20.90;;;10.45;;
71166;SDS011;58864;45.928;20.078;2023-04-30T07:18:55;17.98;;;10.18;;
71166;SDS011;58864;45.928;20.078;2023-04-30T07:21:20;17.30;;;10.03;;
71166;SDS011;58864;45.928;20.078;2023-04-30T07:23:44;20.87;;;11.57;;
71166;SDS011;58864;45.928;20.078;2023-04-30T07:26:09;17.63;;;10.53;;
71166;SDS011;58864;45.928;20.078;2023-04-30T07:28:33;15.60;;;10.13;;
71166;SDS011;58864;45.928;20.078;2023-04-30T07:30:58;21.90;;;10.23;;
71166;SDS011;58864;45.928;20.078;2023-04-30T07:33:23;17.40;;;10.57;;
71166;SDS011;58864;45.928;20.078;2023-04-30T07:35:47;17.05;;;9.85;;
71166;SDS011;58864;45.928;20.078;2023-04-30T07:38:12;17.33;;;9.60;;
71166;SDS011;58864;45.928;20.078;2023-04-30T07:40:36;16.70;;;9.27;;
71166;SDS011;58864;45.928;20.078;2023-04-30T07:43:01;20.90;;;10.83;;
71166;SDS011;58864;45.928;20.078;2023-04-30T07:45:26;16.58;;;9.57;;
71166;SDS011;58864;45.928;20.078;2023-04-30T07:47:50;15.20;;;9.30;;
71166;SDS011;58864;45.928;20.078;2023-04-30T07:50:15;17.15;;;9.35;;
71166;SDS011;58864;45.928;20.078;2023-04-30T07:52:40;16.63;;;9.97;;
71166;SDS011;58864;45.928;20.078;2023-04-30T07:55:04;20.75;;;10.55;;
71166;SDS011;58864;45.928;20.078;2023-04-30T07:57:29;15.63;;;9.75;;
71166;SDS011;58864;45.928;20.078;2023-04-30T07:59:54;17.40;;;9.80;;
71166;SDS011;58864;45.928;20.078;2023-04-30T08:02:19;16.63;;;10.47;;
71166;SDS011;58864;45.928;20.078;2023-04-30T08:04:43;17.77;;;10.40;;
71166;SDS011;58864;45.928;20.078;2023-04-30T08:07:08;16.40;;;9.77;;
71166;SDS011;58864;45.928;20.078;2023-04-30T08:09:32;14.33;;;8.57;;
71166;SDS011;58864;45.928;20.078;2023-04-30T08:11:57;14.13;;;8.17;;
71166;SDS011;58864;45.928;20.078;2023-04-30T08:14:21;13.57;;;7.18;;
71166;SDS011;58864;45.928;20.078;2023-04-30T08:16:46;14.43;;;6.60;;
71166;SDS011;58864;45.928;20.078;2023-04-30T08:19:10;12.17;;;6.97;;
71166;SDS011;58864;45.928;20.078;2023-04-30T08:21:35;14.85;;;8.10;;
71166;SDS011;58864;45.928;20.078;2023-04-30T08:23:59;13.93;;;8.37;;
71166;SDS011;58864;45.928;20.078;2023-04-30T08:26:24;14.18;;;8.52;;
71166;SDS011;58864;45.928;20.078;2023-04-30T08:28:49;14.07;;;8.10;;
71166;SDS011;58864;45.928;20.078;2023-04-30T08:31:13;14.23;;;7.90;;
71166;SDS011;58864;45.928;20.078;2023-04-30T08:33:38;48.40;;;9.07;;
71166;SDS011;58864;45.928;20.078;2023-04-30T08:36:04;14.20;;;7.00;;
71166;SDS011;58864;45.928;20.078;2023-04-30T08:38:28;11.50;;;6.67;;
71166;SDS011;58864;45.928;20.078;2023-04-30T08:41:26;13.80;;;6.27;;
71166;SDS011;58864;45.928;20.078;2023-04-30T08:43:45;9.80;;;6.28;;
71166;SDS011;58864;45.928;20.078;2023-04-30T08:46:10;9.77;;;5.60;;
71166;SDS011;58864;45.928;20.078;2023-04-30T08:48:36;13.43;;;6.17;;
71166;SDS011;58864;45.928;20.078;2023-04-30T08:51:01;10.15;;;5.13;;
71166;SDS011;58864;45.928;20.078;2023-04-30T08:53:26;9.33;;;4.63;;
71166;SDS011;58864;45.928;20.078;2023-04-30T08:55:51;11.45;;;4.47;;
71166;SDS011;58864;45.928;20.078;2023-04-30T08:58:16;9.95;;;4.68;;
71166;SDS011;58864;45.928;20.078;2023-04-30T09:00:40;11.30;;;4.40;;
71166;SDS011;58864;45.928;20.078;2023-04-30T09:03:05;7.63;;;4.43;;
71166;SDS011;58864;45.928;20.078;2023-04-30T09:05:31;17.42;;;5.95;;
71166;SDS011;58864;45.928;20.078;2023-04-30T09:07:55;8.50;;;4.93;;
71166;SDS011;58864;45.928;20.078;2023-04-30T09:10:20;13.95;;;5.95;;
71166;SDS011;58864;45.928;20.078;2023-04-30T09:15:29;9.75;;;4.88;;
71166;SDS011;58864;45.928;20.078;2023-04-30T09:20:35;9.20;;;5.18;;
71166;SDS011;58864;45.928;20.078;2023-04-30T09:23:06;10.77;;;4.40;;
71166;SDS011;58864;45.928;20.078;2023-04-30T09:25:40;8.27;;;4.63;;
71166;SDS011;58864;45.928;20.078;2023-04-30T09:28:08;8.43;;;3.85;;
71166;SDS011;58864;45.928;20.078;2023-04-30T09:30:33;7.17;;;4.13;;
71166;SDS011;58864;45.928;20.078;2023-04-30T09:32:58;13.18;;;4.20;;
71166;SDS011;58864;45.928;20.078;2023-04-30T09:35:32;8.17;;;4.20;;
71166;SDS011;58864;45.928;20.078;2023-04-30T09:38:02;8.60;;;4.32;;
71166;SDS011;58864;45.928;20.078;2023-04-30T09:40:37;7.90;;;4.10;;
71166;SDS011;58864;45.928;20.078;2023-04-30T09:43:03;8.50;;;4.18;;
71166;SDS011;58864;45.928;20.078;2023-04-30T09:48:16;8.52;;;4.65;;
71166;SDS011;58864;45.928;20.078;2023-04-30T09:50:41;9.65;;;5.00;;
71166;SDS011;58864;45.928;20.078;2023-04-30T09:53:06;8.67;;;4.40;;
71166;SDS011;58864;45.928;20.078;2023-04-30T09:55:36;9.02;;;5.05;;
71166;SDS011;58864;45.928;20.078;2023-04-30T09:58:04;8.38;;;4.60;;
71166;SDS011;58864;45.928;20.078;2023-04-30T10:00:30;10.23;;;4.53;;
71166;SDS011;58864;45.928;20.078;2023-04-30T10:02:57;8.45;;;4.78;;
71166;SDS011;58864;45.928;20.078;2023-04-30T10:05:23;12.68;;;5.45;;
71166;SDS011;58864;45.928;20.078;2023-04-30T10:07:47;11.17;;;5.50;;
71166;SDS011;58864;45.928;20.078;2023-04-30T10:10:12;10.27;;;5.05;;
71166;SDS011;58864;45.928;20.078;2023-04-30T10:12:38;10.47;;;4.50;;
71166;SDS011;58864;45.928;20.078;2023-04-30T10:15:19;8.85;;;4.28;;
71166;SDS011;58864;45.928;20.078;2023-04-30T10:18:13;7.30;;;4.07;;
71166;SDS011;58864;45.928;20.078;2023-04-30T10:20:41;7.30;;;4.38;;
71166;SDS011;58864;45.928;20.078;2023-04-30T10:23:06;7.65;;;4.50;;
71166;SDS011;58864;45.928;20.078;2023-04-30T10:25:31;9.27;;;5.03;;
71166;SDS011;58864;45.928;20.078;2023-04-30T10:27:56;8.13;;;4.63;;
71166;SDS011;58864;45.928;20.078;2023-04-30T10:30:20;8.83;;;4.50;;
71166;SDS011;58864;45.928;20.078;2023-04-30T10:32:47;14.98;;;6.50;;
71166;SDS011;58864;45.928;20.078;2023-04-30T10:35:25;9.68;;;4.90;;
71166;SDS011;58864;45.928;20.078;2023-04-30T10:37:56;9.48;;;4.13;;
71166;SDS011;58864;45.928;20.078;2023-04-30T10:40:25;10.37;;;4.80;;
71166;SDS011;58864;45.928;20.078;2023-04-30T10:42:52;9.13;;;4.80;;
71166;SDS011;58864;45.928;20.078;2023-04-30T10:45:17;9.65;;;4.13;;
71166;SDS011;58864;45.928;20.078;2023-04-30T10:47:43;9.18;;;4.10;;
71166;SDS011;58864;45.928;20.078;2023-04-30T10:50:11;7.32;;;4.22;;
71166;SDS011;58864;45.928;20.078;2023-04-30T10:52:36;8.40;;;3.90;;
71166;SDS011;58864;45.928;20.078;2023-04-30T10:55:05;10.82;;;3.63;;
71166;SDS011;58864;45.928;20.078;2023-04-30T10:57:30;8.23;;;3.83;;
71166;SDS011;58864;45.928;20.078;2023-04-30T11:02:38;9.23;;;3.90;;
71166;SDS011;58864;45.928;20.078;2023-04-30T11:07:31;7.45;;;3.40;;
71166;SDS011;58864;45.928;20.078;2023-04-30T11:09:56;8.03;;;3.60;;
71166;SDS011;58864;45.928;20.078;2023-04-30T11:12:21;8.32;;;3.60;;
71166;SDS011;58864;45.928;20.078;2023-04-30T11:14:51;7.28;;;3.30;;
71166;SDS011;58864;45.928;20.078;2023-04-30T11:17:22;8.53;;;3.60;;
71166;SDS011;58864;45.928;20.078;2023-04-30T11:19:48;7.82;;;4.03;;
71166;SDS011;58864;45.928;20.078;2023-04-30T11:22:14;8.40;;;4.15;;
71166;SDS011;58864;45.928;20.078;2023-04-30T11:24:49;6.07;;;3.40;;
71166;SDS011;58864;45.928;20.078;2023-04-30T11:27:23;8.38;;;3.60;;
71166;SDS011;58864;45.928;20.078;2023-04-30T11:29:49;5.90;;;3.78;;
71166;SDS011;58864;45.928;20.078;2023-04-30T11:32:15;6.78;;;3.80;;
71166;SDS011;58864;45.928;20.078;2023-04-30T11:34:42;7.82;;;3.63;;
71166;SDS011;58864;45.928;20.078;2023-04-30T11:37:08;7.23;;;3.63;;
71166;SDS011;58864;45.928;20.078;2023-04-30T11:39:36;6.15;;;3.30;;
71166;SDS011;58864;45.928;20.078;2023-04-30T11:42:01;8.13;;;3.83;;
71166;SDS011;58864;45.928;20.078;2023-04-30T11:44:28;7.03;;;3.50;;
71166;SDS011;58864;45.928;20.078;2023-04-30T11:46:53;6.63;;;3.37;;
71166;SDS011;58864;45.928;20.078;2023-04-30T11:49:21;6.70;;;3.80;;
71166;SDS011;58864;45.928;20.078;2023-04-30T11:51:49;7.07;;;3.90;;
71166;SDS011;58864;45.928;20.078;2023-04-30T11:54:14;6.85;;;3.50;;
71166;SDS011;58864;45.928;20.078;2023-04-30T11:56:39;10.63;;;4.18;;
71166;SDS011;58864;45.928;20.078;2023-04-30T11:59:11;7.20;;;4.03;;
71166;SDS011;58864;45.928;20.078;2023-04-30T12:01:35;6.85;;;3.45;;
71166;SDS011;58864;45.928;20.078;2023-04-30T12:04:00;6.00;;;3.30;;
71166;SDS011;58864;45.928;20.078;2023-04-30T12:06:27;6.22;;;3.50;;
71166;SDS011;58864;45.928;20.078;2023-04-30T12:08:55;7.67;;;4.10;;
71166;SDS011;58864;45.928;20.078;2023-04-30T12:11:23;8.27;;;3.67;;
71166;SDS011;58864;45.928;20.078;2023-04-30T12:14:10;8.45;;;3.90;;
71166;SDS011;58864;45.928;20.078;2023-04-30T12:16:52;6.75;;;4.00;;
71166;SDS011;58864;45.928;20.078;2023-04-30T12:19:17;9.57;;;4.80;;
71166;SDS011;58864;45.928;20.078;2023-04-30T12:21:43;8.55;;;4.35;;
71166;SDS011;58864;45.928;20.078;2023-04-30T12:24:10;6.82;;;3.20;;
71166;SDS011;58864;45.928;20.078;2023-04-30T12:26:39;6.18;;;3.00;;
71166;SDS011;58864;45.928;20.078;2023-04-30T12:29:07;8.27;;;3.47;;
71166;SDS011;58864;45.928;20.078;2023-04-30T12:31:32;5.77;;;2.73;;
71166;SDS011;58864;45.928;20.078;2023-04-30T12:33:56;5.70;;;3.22;;
71166;SDS011;58864;45.928;20.078;2023-04-30T12:36:30;7.53;;;3.30;;
71166;SDS011;58864;45.928;20.078;2023-04-30T12:39:05;6.57;;;3.30;;
71166;SDS011;58864;45.928;20.078;2023-04-30T12:41:35;5.65;;;3.00;;
71166;SDS011;58864;45.928;20.078;2023-04-30T12:44:40;5.40;;;2.60;;
71166;SDS011;58864;45.928;20.078;2023-04-30T12:46:57;5.53;;;2.67;;
71166;SDS011;58864;45.928;20.078;2023-04-30T12:49:27;5.15;;;2.33;;
71166;SDS011;58864;45.928;20.078;2023-04-30T12:51:58;5.05;;;2.50;;
71166;SDS011;58864;45.928;20.078;2023-04-30T12:54:25;5.55;;;2.40;;
71166;SDS011;58864;45.928;20.078;2023-04-30T12:56:57;4.30;;;2.20;;
71166;SDS011;58864;45.928;20.078;2023-04-30T12:59:39;5.70;;;2.67;;
71166;SDS011;58864;45.928;20.078;2023-04-30T13:02:21;5.43;;;2.60;;
71166;SDS011;58864;45.928;20.078;2023-04-30T13:04:49;4.82;;;2.40;;
71166;SDS011;58864;45.928;20.078;2023-04-30T13:07:14;5.10;;;2.42;;
71166;SDS011;58864;45.928;20.078;2023-04-30T13:09:38;5.20;;;1.77;;
71166;SDS011;58864;45.928;20.078;2023-04-30T13:12:03;4.10;;;1.60;;
71166;SDS011;58864;45.928;20.078;2023-04-30T13:14:32;5.03;;;1.77;;
71166;SDS011;58864;45.928;20.078;2023-04-30T13:16:59;4.40;;;1.90;;
71166;SDS011;58864;45.928;20.078;2023-04-30T13:19:27;5.82;;;2.20;;
71166;SDS011;58864;45.928;20.078;2023-04-30T13:21:53;6.03;;;2.40;;
71166;SDS011;58864;45.928;20.078;2023-04-30T13:24:17;7.00;;;2.30;;
71166;SDS011;58864;45.928;20.078;2023-04-30T13:26:42;5.25;;;2.70;;
71166;SDS011;58864;45.928;20.078;2023-04-30T13:29:06;6.27;;;2.60;;
71166;SDS011;58864;45.928;20.078;2023-04-30T13:31:31;5.33;;;2.47;;
71166;SDS011;58864;45.928;20.078;2023-04-30T13:33:55;8.80;;;2.15;;
71166;SDS011;58864;45.928;20.078;2023-04-30T13:36:20;6.03;;;2.40;;
71166;SDS011;58864;45.928;20.078;2023-04-30T13:38:45;6.57;;;2.67;;
71166;SDS011;58864;45.928;20.078;2023-04-30T13:41:10;6.20;;;2.20;;
71166;SDS011;58864;45.928;20.078;2023-04-30T13:43:34;4.50;;;1.90;;
71166;SDS011;58864;45.928;20.078;2023-04-30T13:46:01;4.63;;;1.90;;
71166;SDS011;58864;45.928;20.078;2023-04-30T13:48:26;4.33;;;2.00;;
71166;SDS011;58864;45.928;20.078;2023-04-30T13:50:51;4.57;;;1.80;;
71166;SDS011;58864;45.928;20.078;2023-04-30T13:53:15;6.13;;;1.67;;
71166;SDS011;58864;45.928;20.078;2023-04-30T13:55:40;4.00;;;1.60;;
71166;SDS011;58864;45.928;20.078;2023-04-30T13:58:05;5.07;;;2.07;;
71166;SDS011;58864;45.928;20.078;2023-04-30T14:00:29;4.50;;;2.00;;
71166;SDS011;58864;45.928;20.078;2023-04-30T14:02:54;4.40;;;2.03;;
71166;SDS011;58864;45.928;20.078;2023-04-30T14:05:18;4.60;;;2.10;;
71166;SDS011;58864;45.928;20.078;2023-04-30T14:07:43;4.30;;;1.92;;
71166;SDS011;58864;45.928;20.078;2023-04-30T14:10:07;5.70;;;2.07;;
71166;SDS011;58864;45.928;20.078;2023-04-30T14:12:32;5.77;;;1.80;;
71166;SDS011;58864;45.928;20.078;2023-04-30T14:14:57;4.33;;;2.00;;
71166;SDS011;58864;45.928;20.078;2023-04-30T14:17:22;4.53;;;1.85;;
71166;SDS011;58864;45.928;20.078;2023-04-30T14:19:48;4.43;;;1.70;;
71166;SDS011;58864;45.928;20.078;2023-04-30T14:22:12;4.37;;;1.80;;
71166;SDS011;58864;45.928;20.078;2023-04-30T14:24:37;3.90;;;1.70;;
71166;SDS011;58864;45.928;20.078;2023-04-30T14:27:02;4.47;;;1.80;;
71166;SDS011;58864;45.928;20.078;2023-04-30T14:29:27;4.28;;;1.90;;
71166;SDS011;58864;45.928;20.078;2023-04-30T14:31:51;4.30;;;1.83;;
71166;SDS011;58864;45.928;20.078;2023-04-30T14:34:16;4.20;;;2.10;;
71166;SDS011;58864;45.928;20.078;2023-04-30T14:36:40;4.50;;;2.00;;
71166;SDS011;58864;45.928;20.078;2023-04-30T14:39:05;5.73;;;2.50;;
71166;SDS011;58864;45.928;20.078;2023-04-30T14:41:43;5.72;;;2.20;;
71166;SDS011;58864;45.928;20.078;2023-04-30T14:44:08;4.80;;;2.30;;